Liberty Center, Indiana
Current Conditions -  °F | °C
As of 7:35 AM on Sunday 21 Dec 2014 (Local Time) from KHHG Reporting Station
Overcast Overcast  
Wind Chill: 29°   Ceiling: 6000
Heat Index: 29°   Visibility: 7mi
Dew Point: 26°   Wind: 3mph
Humidity: 90%   Direction: 150°SSE
Pressure: 30.29"   Gusts: NA
Location:  40.7°N, 85.28°W
Report Text: KHHG 211235Z AUTO 15003KT 7SM OVC060 M02/M03 A3029 RMK AO2 T10191033
Loading
Personal Weather Stations






























Interactive Weather Map New forecast layout! Learn more

10-Day Weather Forecast

Advertisements
Track Severe Weather on mobile